sensor_id;sensor_type;location;lat;lon;timestamp;temperature;humidity
70271;SHT31;57680;54.292;18.598;2023-03-01T00:01:14;1.20;86.63
70271;SHT31;57680;54.292;18.598;2023-03-01T00:03:40;1.14;86.92
70271;SHT31;57680;54.292;18.598;2023-03-01T00:06:05;1.07;87.21
70271;SHT31;57680;54.292;18.598;2023-03-01T00:08:32;1.14;86.94
70271;SHT31;57680;54.292;18.598;2023-03-01T00:13:27;1.07;87.24
70271;SHT31;57680;54.292;18.598;2023-03-01T00:15:53;1.07;87.26
70271;SHT31;57680;54.292;18.598;2023-03-01T00:18:18;1.07;87.63
70271;SHT31;57680;54.292;18.598;2023-03-01T00:20:50;1.16;87.49
70271;SHT31;57680;54.292;18.598;2023-03-01T00:23:15;1.11;87.44
70271;SHT31;57680;54.292;18.598;2023-03-01T00:25:42;1.19;87.11
70271;SHT31;57680;54.292;18.598;2023-03-01T00:28:08;1.20;87.31
70271;SHT31;57680;54.292;18.598;2023-03-01T00:30:33;1.27;86.91
70271;SHT31;57680;54.292;18.598;2023-03-01T00:32:59;1.23;87.13
70271;SHT31;57680;54.292;18.598;2023-03-01T00:35:24;1.32;86.75
70271;SHT31;57680;54.292;18.598;2023-03-01T00:37:50;1.32;86.58
70271;SHT31;57680;54.292;18.598;2023-03-01T00:40:15;1.32;86.88
70271;SHT31;57680;54.292;18.598;2023-03-01T00:42:41;1.37;86.96
70271;SHT31;57680;54.292;18.598;2023-03-01T00:45:06;1.24;87.18
70271;SHT31;57680;54.292;18.598;2023-03-01T00:47:32;1.27;87.34
70271;SHT31;57680;54.292;18.598;2023-03-01T00:49:57;1.28;87.30
70271;SHT31;57680;54.292;18.598;2023-03-01T00:52:23;1.42;87.43
70271;SHT31;57680;54.292;18.598;2023-03-01T00:54:53;1.47;88.07
70271;SHT31;57680;54.292;18.598;2023-03-01T00:57:18;1.38;87.22
70271;SHT31;57680;54.292;18.598;2023-03-01T00:59:43;1.31;87.25
70271;SHT31;57680;54.292;18.598;2023-03-01T01:02:09;1.27;88.20
70271;SHT31;57680;54.292;18.598;2023-03-01T01:04:34;1.30;87.76
70271;SHT31;57680;54.292;18.598;2023-03-01T01:07:00;1.31;87.75
70271;SHT31;57680;54.292;18.598;2023-03-01T01:09:25;1.23;88.04
70271;SHT31;57680;54.292;18.598;2023-03-01T01:11:51;1.30;87.57
70271;SHT31;57680;54.292;18.598;2023-03-01T01:14:18;1.28;87.87
70271;SHT31;57680;54.292;18.598;2023-03-01T01:16:43;1.35;87.69
70271;SHT31;57680;54.292;18.598;2023-03-01T01:19:10;1.27;87.73
70271;SHT31;57680;54.292;18.598;2023-03-01T01:21:36;1.24;88.69
70271;SHT31;57680;54.292;18.598;2023-03-01T01:24:04;1.24;88.25
70271;SHT31;57680;54.292;18.598;2023-03-01T01:26:31;1.26;88.32
70271;SHT31;57680;54.292;18.598;2023-03-01T01:28:58;1.17;89.34
70271;SHT31;57680;54.292;18.598;2023-03-01T01:31:25;1.41;88.50
70271;SHT31;57680;54.292;18.598;2023-03-01T01:33:52;1.35;88.36
70271;SHT31;57680;54.292;18.598;2023-03-01T01:36:18;1.30;88.69
70271;SHT31;57680;54.292;18.598;2023-03-01T01:38:44;1.34;88.41
70271;SHT31;57680;54.292;18.598;2023-03-01T01:41:11;1.30;88.87
70271;SHT31;57680;54.292;18.598;2023-03-01T01:54:53;1.20;88.65
70271;SHT31;57680;54.292;18.598;2023-03-01T01:57:32;1.08;89.50
70271;SHT31;57680;54.292;18.598;2023-03-01T02:00:00;1.14;89.31
70271;SHT31;57680;54.292;18.598;2023-03-01T02:02:27;1.19;89.33
70271;SHT31;57680;54.292;18.598;2023-03-01T02:05:01;1.24;89.07
70271;SHT31;57680;54.292;18.598;2023-03-01T02:07:28;1.26;89.63
70271;SHT31;57680;54.292;18.598;2023-03-01T02:09:53;1.14;90.12
70271;SHT31;57680;54.292;18.598;2023-03-01T02:12:22;1.10;90.33
70271;SHT31;57680;54.292;18.598;2023-03-01T02:14:48;1.13;89.96
70271;SHT31;57680;54.292;18.598;2023-03-01T02:17:16;1.17;89.99
70271;SHT31;57680;54.292;18.598;2023-03-01T02:22:24;1.16;89.72
70271;SHT31;57680;54.292;18.598;2023-03-01T02:27:53;1.00;90.58
70271;SHT31;57680;54.292;18.598;2023-03-01T02:30:22;1.01;90.64
70271;SHT31;57680;54.292;18.598;2023-03-01T02:32:48;0.86;91.24
70271;SHT31;57680;54.292;18.598;2023-03-01T02:35:15;0.84;91.33
70271;SHT31;57680;54.292;18.598;2023-03-01T02:37:42;0.83;91.90
70271;SHT31;57680;54.292;18.598;2023-03-01T02:40:11;0.75;91.96
70271;SHT31;57680;54.292;18.598;2023-03-01T02:42:56;0.90;91.51
70271;SHT31;57680;54.292;18.598;2023-03-01T02:45:22;0.93;92.16
70271;SHT31;57680;54.292;18.598;2023-03-01T02:47:47;0.89;91.70
70271;SHT31;57680;54.292;18.598;2023-03-01T02:51:19;0.86;91.75
70271;SHT31;57680;54.292;18.598;2023-03-01T02:56:08;0.83;92.50
70271;SHT31;57680;54.292;18.598;2023-03-01T02:58:33;0.79;92.80
70271;SHT31;57680;54.292;18.598;2023-03-01T03:00:59;0.93;92.11
70271;SHT31;57680;54.292;18.598;2023-03-01T03:03:24;0.79;92.72
70271;SHT31;57680;54.292;18.598;2023-03-01T03:05:50;0.86;92.29
70271;SHT31;57680;54.292;18.598;2023-03-01T03:08:16;0.86;92.83
70271;SHT31;57680;54.292;18.598;2023-03-01T03:10:42;0.87;92.70
70271;SHT31;57680;54.292;18.598;2023-03-01T03:13:13;0.83;92.86
70271;SHT31;57680;54.292;18.598;2023-03-01T03:15:40;0.77;92.71
70271;SHT31;57680;54.292;18.598;2023-03-01T03:18:09;0.76;93.23
70271;SHT31;57680;54.292;18.598;2023-03-01T03:20:34;0.79;92.99
70271;SHT31;57680;54.292;18.598;2023-03-01T03:23:00;0.76;92.32
70271;SHT31;57680;54.292;18.598;2023-03-01T03:25:27;0.73;93.04
70271;SHT31;57680;54.292;18.598;2023-03-01T03:27:54;0.77;92.59
70271;SHT31;57680;54.292;18.598;2023-03-01T03:30:19;0.90;92.41
70271;SHT31;57680;54.292;18.598;2023-03-01T03:32:47;0.76;92.83
70271;SHT31;57680;54.292;18.598;2023-03-01T03:35:12;0.77;93.24
70271;SHT31;57680;54.292;18.598;2023-03-01T03:37:39;0.68;93.55
70271;SHT31;57680;54.292;18.598;2023-03-01T03:40:05;0.66;93.85
70271;SHT31;57680;54.292;18.598;2023-03-01T03:42:31;0.56;93.73
70271;SHT31;57680;54.292;18.598;2023-03-01T03:44:56;0.69;93.60
70271;SHT31;57680;54.292;18.598;2023-03-01T03:47:22;0.66;93.80
70271;SHT31;57680;54.292;18.598;2023-03-01T03:49:47;0.69;94.17
70271;SHT31;57680;54.292;18.598;2023-03-01T03:52:13;0.80;93.62
70271;SHT31;57680;54.292;18.598;2023-03-01T03:54:39;1.01;94.34
70271;SHT31;57680;54.292;18.598;2023-03-01T03:57:05;0.87;92.90
70271;SHT31;57680;54.292;18.598;2023-03-01T03:59:30;0.76;93.69
70271;SHT31;57680;54.292;18.598;2023-03-01T04:01:56;0.60;94.19
70271;SHT31;57680;54.292;18.598;2023-03-01T04:04:21;0.69;93.17
70271;SHT31;57680;54.292;18.598;2023-03-01T04:06:47;0.59;93.35
70271;SHT31;57680;54.292;18.598;2023-03-01T04:09:12;0.68;93.10
70271;SHT31;57680;54.292;18.598;2023-03-01T04:11:37;0.52;92.82
70271;SHT31;57680;54.292;18.598;2023-03-01T04:14:03;0.55;92.93
70271;SHT31;57680;54.292;18.598;2023-03-01T04:16:28;0.46;93.45
70271;SHT31;57680;54.292;18.598;2023-03-01T04:18:54;0.56;93.95
70271;SHT31;57680;54.292;18.598;2023-03-01T04:21:19;0.53;93.70
70271;SHT31;57680;54.292;18.598;2023-03-01T04:23:45;0.58;94.55
70271;SHT31;57680;54.292;18.598;2023-03-01T04:26:10;0.52;94.19
70271;SHT31;57680;54.292;18.598;2023-03-01T04:28:38;0.59;94.10
70271;SHT31;57680;54.292;18.598;2023-03-01T04:31:16;0.52;93.82
70271;SHT31;57680;54.292;18.598;2023-03-01T04:33:43;0.44;94.24
70271;SHT31;57680;54.292;18.598;2023-03-01T04:36:10;0.41;94.60
70271;SHT31;57680;54.292;18.598;2023-03-01T04:38:37;0.31;94.38
70271;SHT31;57680;54.292;18.598;2023-03-01T04:41:07;0.33;95.01
70271;SHT31;57680;54.292;18.598;2023-03-01T04:43:34;0.25;94.56
70271;SHT31;57680;54.292;18.598;2023-03-01T04:46:04;0.22;94.35
70271;SHT31;57680;54.292;18.598;2023-03-01T04:48:30;0.31;95.12
70271;SHT31;57680;54.292;18.598;2023-03-01T04:50:56;0.52;95.16
70271;SHT31;57680;54.292;18.598;2023-03-01T04:53:21;0.44;94.87
70271;SHT31;57680;54.292;18.598;2023-03-01T04:55:47;0.42;94.73
70271;SHT31;57680;54.292;18.598;2023-03-01T04:58:12;0.45;94.51
70271;SHT31;57680;54.292;18.598;2023-03-01T05:00:38;0.46;94.28
70271;SHT31;57680;54.292;18.598;2023-03-01T05:03:05;0.39;95.23
70271;SHT31;57680;54.292;18.598;2023-03-01T05:05:35;0.46;94.26
70271;SHT31;57680;54.292;18.598;2023-03-01T05:08:03;0.41;94.19
70271;SHT31;57680;54.292;18.598;2023-03-01T05:10:30;0.44;94.45
70271;SHT31;57680;54.292;18.598;2023-03-01T05:12:56;0.37;95.27
70271;SHT31;57680;54.292;18.598;2023-03-01T05:15:22;0.38;94.85
70271;SHT31;57680;54.292;18.598;2023-03-01T05:17:48;0.38;95.00
70271;SHT31;57680;54.292;18.598;2023-03-01T05:20:14;0.37;95.51
70271;SHT31;57680;54.292;18.598;2023-03-01T05:22:39;0.55;95.02
70271;SHT31;57680;54.292;18.598;2023-03-01T05:25:05;0.38;94.94
70271;SHT31;57680;54.292;18.598;2023-03-01T05:27:32;0.42;94.22
70271;SHT31;57680;54.292;18.598;2023-03-01T05:29:57;0.45;94.10
70271;SHT31;57680;54.292;18.598;2023-03-01T05:32:23;0.46;94.10
70271;SHT31;57680;54.292;18.598;2023-03-01T05:34:49;0.29;93.67
70271;SHT31;57680;54.292;18.598;2023-03-01T05:37:14;0.32;93.99
70271;SHT31;57680;54.292;18.598;2023-03-01T05:39:40;0.32;94.11
70271;SHT31;57680;54.292;18.598;2023-03-01T05:42:05;0.25;94.49
70271;SHT31;57680;54.292;18.598;2023-03-01T05:44:31;0.38;95.16
70271;SHT31;57680;54.292;18.598;2023-03-01T05:46:57;0.60;94.16
70271;SHT31;57680;54.292;18.598;2023-03-01T05:49:22;0.73;95.26
70271;SHT31;57680;54.292;18.598;2023-03-01T05:51:50;0.59;93.78
70271;SHT31;57680;54.292;18.598;2023-03-01T05:54:16;0.60;93.75
70271;SHT31;57680;54.292;18.598;2023-03-01T05:56:43;0.58;93.80
70271;SHT31;57680;54.292;18.598;2023-03-01T05:59:09;0.52;93.59
70271;SHT31;57680;54.292;18.598;2023-03-01T06:01:35;0.55;93.47
70271;SHT31;57680;54.292;18.598;2023-03-01T06:04:01;0.52;94.21
70271;SHT31;57680;54.292;18.598;2023-03-01T06:06:27;0.55;93.86
70271;SHT31;57680;54.292;18.598;2023-03-01T06:08:53;0.63;93.23
70271;SHT31;57680;54.292;18.598;2023-03-01T06:11:19;0.69;93.61
70271;SHT31;57680;54.292;18.598;2023-03-01T06:13:45;0.77;93.27
70271;SHT31;57680;54.292;18.598;2023-03-01T06:16:11;0.87;93.05
70271;SHT31;57680;54.292;18.598;2023-03-01T06:18:38;0.84;92.86
70271;SHT31;57680;54.292;18.598;2023-03-01T06:21:05;0.93;92.27
70271;SHT31;57680;54.292;18.598;2023-03-01T06:23:31;0.94;92.44
70271;SHT31;57680;54.292;18.598;2023-03-01T06:25:56;0.99;92.25
70271;SHT31;57680;54.292;18.598;2023-03-01T06:28:22;1.07;92.58
70271;SHT31;57680;54.292;18.598;2023-03-01T06:30:47;1.23;90.79
70271;SHT31;57680;54.292;18.598;2023-03-01T06:33:13;1.38;90.86
70271;SHT31;57680;54.292;18.598;2023-03-01T06:35:39;1.45;90.44
70271;SHT31;57680;54.292;18.598;2023-03-01T06:38:05;1.63;89.24
70271;SHT31;57680;54.292;18.598;2023-03-01T06:40:31;1.82;89.02
70271;SHT31;57680;54.292;18.598;2023-03-01T06:42:58;2.16;88.78
70271;SHT31;57680;54.292;18.598;2023-03-01T06:45:23;2.33;88.34
70271;SHT31;57680;54.292;18.598;2023-03-01T06:47:49;2.74;86.41
70271;SHT31;57680;54.292;18.598;2023-03-01T06:50:16;2.80;84.86
70271;SHT31;57680;54.292;18.598;2023-03-01T06:52:42;2.72;84.42
70271;SHT31;57680;54.292;18.598;2023-03-01T06:55:08;2.66;84.37
70271;SHT31;57680;54.292;18.598;2023-03-01T06:57:34;2.40;85.56
70271;SHT31;57680;54.292;18.598;2023-03-01T06:59:59;2.26;86.76
70271;SHT31;57680;54.292;18.598;2023-03-01T07:02:25;2.14;86.78
70271;SHT31;57680;54.292;18.598;2023-03-01T07:04:51;1.92;87.90
70271;SHT31;57680;54.292;18.598;2023-03-01T07:07:17;1.83;88.27
70271;SHT31;57680;54.292;18.598;2023-03-01T07:09:42;1.72;89.40
70271;SHT31;57680;54.292;18.598;2023-03-01T07:12:08;1.85;89.18
70271;SHT31;57680;54.292;18.598;2023-03-01T07:14:34;1.99;88.67
70271;SHT31;57680;54.292;18.598;2023-03-01T07:16:59;2.26;87.96
70271;SHT31;57680;54.292;18.598;2023-03-01T07:19:25;2.41;87.32
70271;SHT31;57680;54.292;18.598;2023-03-01T07:21:50;2.50;87.16
70271;SHT31;57680;54.292;18.598;2023-03-01T07:24:15;2.64;86.93
70271;SHT31;57680;54.292;18.598;2023-03-01T07:26:41;2.66;86.05
70271;SHT31;57680;54.292;18.598;2023-03-01T07:29:09;2.77;86.25
70271;SHT31;57680;54.292;18.598;2023-03-01T07:31:35;2.93;86.49
70271;SHT31;57680;54.292;18.598;2023-03-01T07:34:00;3.12;85.89
70271;SHT31;57680;54.292;18.598;2023-03-01T07:36:26;3.15;85.15
70271;SHT31;57680;54.292;18.598;2023-03-01T07:38:51;3.12;84.43
70271;SHT31;57680;54.292;18.598;2023-03-01T07:41:17;3.09;84.13
70271;SHT31;57680;54.292;18.598;2023-03-01T07:43:43;3.11;84.63
70271;SHT31;57680;54.292;18.598;2023-03-01T07:46:08;3.16;84.01
70271;SHT31;57680;54.292;18.598;2023-03-01T07:48:34;3.18;83.41
70271;SHT31;57680;54.292;18.598;2023-03-01T07:51:05;3.22;82.95
70271;SHT31;57680;54.292;18.598;2023-03-01T07:53:31;3.27;83.91
70271;SHT31;57680;54.292;18.598;2023-03-01T07:56:11;3.33;83.32
70271;SHT31;57680;54.292;18.598;2023-03-01T07:58:38;3.34;83.46
70271;SHT31;57680;54.292;18.598;2023-03-01T08:01:06;3.49;85.85
70271;SHT31;57680;54.292;18.598;2023-03-01T08:03:33;3.32;83.10
70271;SHT31;57680;54.292;18.598;2023-03-01T08:05:59;3.27;83.39
70271;SHT31;57680;54.292;18.598;2023-03-01T08:08:25;3.32;83.44
70271;SHT31;57680;54.292;18.598;2023-03-01T08:10:50;3.23;83.66
70271;SHT31;57680;54.292;18.598;2023-03-01T08:13:16;3.29;83.21
70271;SHT31;57680;54.292;18.598;2023-03-01T08:15:41;3.50;84.10
70271;SHT31;57680;54.292;18.598;2023-03-01T08:18:07;3.60;81.74
70271;SHT31;57680;54.292;18.598;2023-03-01T08:20:32;3.57;82.20
70271;SHT31;57680;54.292;18.598;2023-03-01T08:22:58;3.64;81.92
70271;SHT31;57680;54.292;18.598;2023-03-01T08:25:23;3.70;81.60
70271;SHT31;57680;54.292;18.598;2023-03-01T08:27:49;3.81;82.00
70271;SHT31;57680;54.292;18.598;2023-03-01T08:30:15;4.01;81.52
70271;SHT31;57680;54.292;18.598;2023-03-01T08:32:40;4.11;81.23
70271;SHT31;57680;54.292;18.598;2023-03-01T08:35:06;4.22;80.78
70271;SHT31;57680;54.292;18.598;2023-03-01T08:37:32;4.39;80.02
70271;SHT31;57680;54.292;18.598;2023-03-01T08:39:57;4.45;79.43
70271;SHT31;57680;54.292;18.598;2023-03-01T08:42:24;4.57;79.64
70271;SHT31;57680;54.292;18.598;2023-03-01T08:44:49;4.81;78.56
70271;SHT31;57680;54.292;18.598;2023-03-01T08:47:14;5.05;78.98
70271;SHT31;57680;54.292;18.598;2023-03-01T08:49:40;5.15;78.01
70271;SHT31;57680;54.292;18.598;2023-03-01T08:52:05;5.30;77.91
70271;SHT31;57680;54.292;18.598;2023-03-01T08:54:31;5.41;76.61
70271;SHT31;57680;54.292;18.598;2023-03-01T08:56:56;5.59;76.70
70271;SHT31;57680;54.292;18.598;2023-03-01T08:59:22;5.86;75.41
70271;SHT31;57680;54.292;18.598;2023-03-01T09:01:47;6.07;76.39
70271;SHT31;57680;54.292;18.598;2023-03-01T09:04:15;5.97;74.66
70271;SHT31;57680;54.292;18.598;2023-03-01T09:06:40;5.89;73.92
70271;SHT31;57680;54.292;18.598;2023-03-01T09:09:10;5.77;74.88
70271;SHT31;57680;54.292;18.598;2023-03-01T09:11:37;5.90;74.76
70271;SHT31;57680;54.292;18.598;2023-03-01T09:14:05;6.04;74.44
70271;SHT31;57680;54.292;18.598;2023-03-01T09:16:30;5.96;73.77
70271;SHT31;57680;54.292;18.598;2023-03-01T09:18:56;6.06;74.53
70271;SHT31;57680;54.292;18.598;2023-03-01T09:21:23;6.11;74.41
70271;SHT31;57680;54.292;18.598;2023-03-01T09:23:49;6.10;73.94
70271;SHT31;57680;54.292;18.598;2023-03-01T09:26:20;5.97;73.81
70271;SHT31;57680;54.292;18.598;2023-03-01T09:28:46;6.09;73.84
70271;SHT31;57680;54.292;18.598;2023-03-01T09:31:13;6.23;74.35
70271;SHT31;57680;54.292;18.598;2023-03-01T09:33:39;6.54;74.25
70271;SHT31;57680;54.292;18.598;2023-03-01T09:36:08;6.58;72.92
70271;SHT31;57680;54.292;18.598;2023-03-01T09:38:35;6.61;72.76
70271;SHT31;57680;54.292;18.598;2023-03-01T09:41:01;6.68;72.84
70271;SHT31;57680;54.292;18.598;2023-03-01T09:46:10;6.93;72.65
70271;SHT31;57680;54.292;18.598;2023-03-01T09:48:48;6.85;71.41
70271;SHT31;57680;54.292;18.598;2023-03-01T09:52:03;7.02;71.70
70271;SHT31;57680;54.292;18.598;2023-03-01T09:54:30;7.28;71.17
70271;SHT31;57680;54.292;18.598;2023-03-01T09:57:15;7.53;71.09
70271;SHT31;57680;54.292;18.598;2023-03-01T10:02:41;7.78;69.39
70271;SHT31;57680;54.292;18.598;2023-03-01T10:10:38;7.73;70.06
70271;SHT31;57680;54.292;18.598;2023-03-01T10:13:17;7.67;68.93
70271;SHT31;57680;54.292;18.598;2023-03-01T10:15:50;7.55;68.81
70271;SHT31;57680;54.292;18.598;2023-03-01T10:18:19;7.38;71.05
70271;SHT31;57680;54.292;18.598;2023-03-01T10:20:52;7.27;69.72
70271;SHT31;57680;54.292;18.598;2023-03-01T10:23:19;7.24;69.42
70271;SHT31;57680;54.292;18.598;2023-03-01T10:28:35;7.28;70.65
70271;SHT31;57680;54.292;18.598;2023-03-01T10:31:13;7.20;70.10
70271;SHT31;57680;54.292;18.598;2023-03-01T10:33:40;7.23;70.16
70271;SHT31;57680;54.292;18.598;2023-03-01T10:36:06;7.19;69.56
70271;SHT31;57680;54.292;18.598;2023-03-01T10:38:54;7.13;70.36
70271;SHT31;57680;54.292;18.598;2023-03-01T10:41:21;7.22;70.80
70271;SHT31;57680;54.292;18.598;2023-03-01T10:43:50;7.20;70.32
70271;SHT31;57680;54.292;18.598;2023-03-01T10:49:19;7.40;71.00
70271;SHT31;57680;54.292;18.598;2023-03-01T10:51:47;7.24;70.69
70271;SHT31;57680;54.292;18.598;2023-03-01T10:54:31;7.07;70.32
70271;SHT31;57680;54.292;18.598;2023-03-01T10:57:00;6.96;71.29
70271;SHT31;57680;54.292;18.598;2023-03-01T10:59:28;6.89;71.25
70271;SHT31;57680;54.292;18.598;2023-03-01T11:04:35;7.04;71.47
70271;SHT31;57680;54.292;18.598;2023-03-01T11:07:01;6.97;71.50
70271;SHT31;57680;54.292;18.598;2023-03-01T11:09:31;7.00;71.65
70271;SHT31;57680;54.292;18.598;2023-03-01T11:11:59;7.03;71.82
70271;SHT31;57680;54.292;18.598;2023-03-01T11:14:50;7.13;72.11
70271;SHT31;57680;54.292;18.598;2023-03-01T11:17:27;7.16;71.62
70271;SHT31;57680;54.292;18.598;2023-03-01T11:22:32;7.07;71.63
70271;SHT31;57680;54.292;18.598;2023-03-01T11:25:00;7.09;72.55
70271;SHT31;57680;54.292;18.598;2023-03-01T11:27:28;7.19;72.10
70271;SHT31;57680;54.292;18.598;2023-03-01T11:32:45;7.19;70.79
70271;SHT31;57680;54.292;18.598;2023-03-01T11:35:28;7.10;71.41
70271;SHT31;57680;54.292;18.598;2023-03-01T11:38:15;7.14;72.02
70271;SHT31;57680;54.292;18.598;2023-03-01T11:40:46;7.14;71.35
70271;SHT31;57680;54.292;18.598;2023-03-01T11:43:19;7.03;71.84
70271;SHT31;57680;54.292;18.598;2023-03-01T11:45:57;7.14;71.65
70271;SHT31;57680;54.292;18.598;2023-03-01T11:54:25;7.10;70.82
70271;SHT31;57680;54.292;18.598;2023-03-01T12:12:35;7.12;71.57
70271;SHT31;57680;54.292;18.598;2023-03-01T12:42:16;6.65;72.93
70271;SHT31;57680;54.292;18.598;2023-03-01T12:50:20;6.49;73.43
70271;SHT31;57680;54.292;18.598;2023-03-01T12:52:51;6.49;73.91
70271;SHT31;57680;54.292;18.598;2023-03-01T12:55:42;6.38;74.55
70271;SHT31;57680;54.292;18.598;2023-03-01T13:06:42;6.33;75.27
70271;SHT31;57680;54.292;18.598;2023-03-01T13:12:03;6.18;74.32
70271;SHT31;57680;54.292;18.598;2023-03-01T13:16:56;6.06;75.20
70271;SHT31;57680;54.292;18.598;2023-03-01T13:19:26;5.99;75.30
70271;SHT31;57680;54.292;18.598;2023-03-01T13:21:53;6.09;75.78
70271;SHT31;57680;54.292;18.598;2023-03-01T13:29:47;6.07;75.75
70271;SHT31;57680;54.292;18.598;2023-03-01T13:32:33;6.06;75.38
70271;SHT31;57680;54.292;18.598;2023-03-01T13:37:40;5.92;75.36
70271;SHT31;57680;54.292;18.598;2023-03-01T13:42:43;6.02;75.61
70271;SHT31;57680;54.292;18.598;2023-03-01T13:45:21;5.92;75.75
70271;SHT31;57680;54.292;18.598;2023-03-01T13:47:52;5.89;75.99
70271;SHT31;57680;54.292;18.598;2023-03-01T13:50:23;5.96;76.63
70271;SHT31;57680;54.292;18.598;2023-03-01T13:53:00;5.96;75.93
70271;SHT31;57680;54.292;18.598;2023-03-01T13:58:14;5.99;76.30
70271;SHT31;57680;54.292;18.598;2023-03-01T14:00:40;6.04;76.26
70271;SHT31;57680;54.292;18.598;2023-03-01T14:03:17;6.09;75.87
70271;SHT31;57680;54.292;18.598;2023-03-01T14:06:08;6.03;75.51
70271;SHT31;57680;54.292;18.598;2023-03-01T14:08:35;5.96;75.73
70271;SHT31;57680;54.292;18.598;2023-03-01T14:19:28;5.70;76.82
70271;SHT31;57680;54.292;18.598;2023-03-01T14:22:13;5.69;76.99
70271;SHT31;57680;54.292;18.598;2023-03-01T14:24:48;5.73;77.19
70271;SHT31;57680;54.292;18.598;2023-03-01T14:27:14;5.83;77.38
70271;SHT31;57680;54.292;18.598;2023-03-01T14:29:40;5.82;77.55
70271;SHT31;57680;54.292;18.598;2023-03-01T14:34:46;5.70;76.92
70271;SHT31;57680;54.292;18.598;2023-03-01T14:39:43;5.63;77.39
70271;SHT31;57680;54.292;18.598;2023-03-01T14:42:08;5.60;77.96
70271;SHT31;57680;54.292;18.598;2023-03-01T14:44:34;5.66;77.35
70271;SHT31;57680;54.292;18.598;2023-03-01T14:46:59;5.62;77.81
70271;SHT31;57680;54.292;18.598;2023-03-01T14:49:30;5.66;78.24
70271;SHT31;57680;54.292;18.598;2023-03-01T14:52:07;5.59;77.63
70271;SHT31;57680;54.292;18.598;2023-03-01T14:54:42;5.69;77.64
70271;SHT31;57680;54.292;18.598;2023-03-01T14:57:16;5.60;77.89
70271;SHT31;57680;54.292;18.598;2023-03-01T14:59:43;5.51;78.04
70271;SHT31;57680;54.292;18.598;2023-03-01T15:02:13;5.38;78.91
70271;SHT31;57680;54.292;18.598;2023-03-01T15:04:41;5.31;79.16
70271;SHT31;57680;54.292;18.598;2023-03-01T15:07:09;5.27;79.25
70271;SHT31;57680;54.292;18.598;2023-03-01T15:09:41;5.31;78.76
70271;SHT31;57680;54.292;18.598;2023-03-01T15:14:58;5.11;79.96
70271;SHT31;57680;54.292;18.598;2023-03-01T15:17:31;5.08;80.36
70271;SHT31;57680;54.292;18.598;2023-03-01T15:19:59;5.07;80.34
70271;SHT31;57680;54.292;18.598;2023-03-01T15:22:26;5.14;80.03
70271;SHT31;57680;54.292;18.598;2023-03-01T15:24:52;5.08;80.36
70271;SHT31;57680;54.292;18.598;2023-03-01T15:27:25;5.08;80.43
70271;SHT31;57680;54.292;18.598;2023-03-01T15:29:59;5.11;80.22
70271;SHT31;57680;54.292;18.598;2023-03-01T15:32:35;5.05;80.57
70271;SHT31;57680;54.292;18.598;2023-03-01T15:35:38;4.90;80.86
70271;SHT31;57680;54.292;18.598;2023-03-01T15:38:04;4.81;81.37
70271;SHT31;57680;54.292;18.598;2023-03-01T15:40:30;4.73;81.57
70271;SHT31;57680;54.292;18.598;2023-03-01T15:42:55;4.69;81.78
70271;SHT31;57680;54.292;18.598;2023-03-01T15:45:24;4.67;81.97
70271;SHT31;57680;54.292;18.598;2023-03-01T15:47:55;4.57;82.16
70271;SHT31;57680;54.292;18.598;2023-03-01T15:50:25;4.43;82.58
70271;SHT31;57680;54.292;18.598;2023-03-01T15:52:51;4.42;83.14
70271;SHT31;57680;54.292;18.598;2023-03-01T15:55:17;4.35;83.25
70271;SHT31;57680;54.292;18.598;2023-03-01T15:57:43;4.38;83.27
70271;SHT31;57680;54.292;18.598;2023-03-01T16:00:11;4.25;83.39
70271;SHT31;57680;54.292;18.598;2023-03-01T16:02:37;4.15;84.01
70271;SHT31;57680;54.292;18.598;2023-03-01T16:05:03;4.05;84.55
70271;SHT31;57680;54.292;18.598;2023-03-01T16:07:29;3.99;84.63
70271;SHT31;57680;54.292;18.598;2023-03-01T16:09:55;3.92;84.71
70271;SHT31;57680;54.292;18.598;2023-03-01T16:12:20;3.84;84.82
70271;SHT31;57680;54.292;18.598;2023-03-01T16:14:46;3.82;84.82
70271;SHT31;57680;54.292;18.598;2023-03-01T16:17:11;3.70;85.29
70271;SHT31;57680;54.292;18.598;2023-03-01T16:19:37;3.66;85.42
70271;SHT31;57680;54.292;18.598;2023-03-01T16:22:03;3.59;85.95
70271;SHT31;57680;54.292;18.598;2023-03-01T16:24:29;3.56;86.10
70271;SHT31;57680;54.292;18.598;2023-03-01T16:26:55;3.56;86.10
70271;SHT31;57680;54.292;18.598;2023-03-01T16:29:21;3.47;86.33
70271;SHT31;57680;54.292;18.598;2023-03-01T16:31:46;3.46;86.37
70271;SHT31;57680;54.292;18.598;2023-03-01T16:34:13;3.44;86.32
70271;SHT31;57680;54.292;18.598;2023-03-01T16:36:38;3.43;86.48
70271;SHT31;57680;54.292;18.598;2023-03-01T16:39:04;3.33;86.47
70271;SHT31;57680;54.292;18.598;2023-03-01T16:41:30;3.24;86.88
70271;SHT31;57680;54.292;18.598;2023-03-01T16:43:55;3.20;87.29
70271;SHT31;57680;54.292;18.598;2023-03-01T16:46:27;3.22;87.47
70271;SHT31;57680;54.292;18.598;2023-03-01T16:48:53;3.22;87.48
70271;SHT31;57680;54.292;18.598;2023-03-01T16:51:19;3.24;87.59
70271;SHT31;57680;54.292;18.598;2023-03-01T16:53:44;3.29;87.55
70271;SHT31;57680;54.292;18.598;2023-03-01T16:56:12;3.36;87.54
70271;SHT31;57680;54.292;18.598;2023-03-01T16:58:39;3.39;87.41
70271;SHT31;57680;54.292;18.598;2023-03-01T17:03:34;3.33;87.34
70271;SHT31;57680;54.292;18.598;2023-03-01T17:06:09;3.36;87.56
70271;SHT31;57680;54.292;18.598;2023-03-01T17:08:36;3.39;87.55
70271;SHT31;57680;54.292;18.598;2023-03-01T17:11:03;3.39;87.34
70271;SHT31;57680;54.292;18.598;2023-03-01T17:13:29;3.42;87.29
70271;SHT31;57680;54.292;18.598;2023-03-01T17:15:55;3.40;87.30
70271;SHT31;57680;54.292;18.598;2023-03-01T17:18:20;3.40;87.28
70271;SHT31;57680;54.292;18.598;2023-03-01T17:20:45;3.37;87.35
70271;SHT31;57680;54.292;18.598;2023-03-01T17:23:11;3.37;87.41
70271;SHT31;57680;54.292;18.598;2023-03-01T17:25:41;3.34;87.44
70271;SHT31;57680;54.292;18.598;2023-03-01T17:28:07;3.33;87.56
70271;SHT31;57680;54.292;18.598;2023-03-01T17:30:32;3.37;87.50
70271;SHT31;57680;54.292;18.598;2023-03-01T17:32:58;3.36;87.62
70271;SHT31;57680;54.292;18.598;2023-03-01T17:35:23;3.36;87.61
70271;SHT31;57680;54.292;18.598;2023-03-01T17:37:49;3.33;87.53
70271;SHT31;57680;54.292;18.598;2023-03-01T17:40:14;3.36;87.42
70271;SHT31;57680;54.292;18.598;2023-03-01T17:42:39;3.34;87.35
70271;SHT31;57680;54.292;18.598;2023-03-01T17:45:06;3.37;87.27
70271;SHT31;57680;54.292;18.598;2023-03-01T17:47:31;3.37;87.25
70271;SHT31;57680;54.292;18.598;2023-03-01T17:49:57;3.34;87.24
70271;SHT31;57680;54.292;18.598;2023-03-01T17:52:23;3.33;87.24
70271;SHT31;57680;54.292;18.598;2023-03-01T17:54:49;3.30;87.42
70271;SHT31;57680;54.292;18.598;2023-03-01T17:57:15;3.32;87.50
70271;SHT31;57680;54.292;18.598;2023-03-01T17:59:41;3.27;87.63
70271;SHT31;57680;54.292;18.598;2023-03-01T18:02:06;3.27;87.78